createdAt,value
2022-12-06T00:00:41.298Z,101210.06
2022-12-06T00:01:47.258Z,101215.16
2022-12-06T00:02:49.018Z,101206.19
2022-12-06T00:03:56.536Z,101214.31
2022-12-06T00:04:58.201Z,101206.19
2022-12-06T00:06:22.080Z,101203.13
2022-12-06T00:07:23.868Z,101205.81
2022-12-06T00:08:25.610Z,101201.59
2022-12-06T00:09:30.351Z,101203.53
2022-12-06T00:10:35.149Z,101196.50
2022-12-06T00:11:37.469Z,101192.38
2022-12-06T00:12:39.209Z,101200.88
2022-12-06T00:13:41.574Z,101198.44
2022-12-06T00:14:43.469Z,101191.28
2022-12-06T00:15:45.226Z,101196.75
2022-12-06T00:16:47.826Z,101195.78
2022-12-06T00:17:49.555Z,101198.56
2022-12-06T00:18:51.769Z,101189.72
2022-12-06T00:19:53.461Z,101192.75
2022-12-06T00:20:55.174Z,101187.06
2022-12-06T00:21:56.990Z,101173.25
2022-12-06T00:22:58.739Z,101182.56
2022-12-06T00:24:06.262Z,101182.69
2022-12-06T00:25:08.257Z,101183.41
2022-12-06T00:26:10.149Z,101180.75
2022-12-06T00:27:11.976Z,101182.44
2022-12-06T00:28:13.653Z,101184.38
2022-12-06T00:29:18.648Z,101172.84
2022-12-06T00:30:20.481Z,101157.25
2022-12-06T00:31:24.151Z,101167.41
2022-12-06T00:32:26.036Z,101169.13
2022-12-06T00:33:28.803Z,101178.09
2022-12-06T00:34:30.597Z,101165.59
2022-12-06T00:35:32.511Z,101176.38
2022-12-06T00:36:37.121Z,101164.03
2022-12-06T00:37:38.869Z,101155.56
2022-12-06T00:38:40.868Z,101161.22
2022-12-06T00:39:42.588Z,101150.22
2022-12-06T00:40:44.310Z,101148.63
2022-12-06T00:41:46.360Z,101160.38
2022-12-06T00:42:48.069Z,101149.72
2022-12-06T00:43:51.122Z,101152.50
2022-12-06T00:44:52.966Z,101162.09
2022-12-06T00:45:54.978Z,101147.41
2022-12-06T00:46:56.700Z,101155.06
2022-12-06T00:47:58.382Z,101148.88
2022-12-06T00:49:01.632Z,101148.75
2022-12-06T00:50:03.632Z,101153.38
2022-12-06T00:51:05.627Z,101151.53
2022-12-06T00:52:07.346Z,101145.63
2022-12-06T00:53:09.169Z,101147.06
2022-12-06T00:54:14.369Z,101132.53
2022-12-06T00:55:16.201Z,101144.38
2022-12-06T00:56:18.262Z,101146.19
2022-12-06T00:57:19.988Z,101142.69
2022-12-06T00:58:22.820Z,101149.00
2022-12-06T00:59:24.524Z,101147.16
2022-12-06T01:00:26.413Z,101147.16
2022-12-06T01:01:31.041Z,101141.25
2022-12-06T01:02:32.821Z,101131.66
2022-12-06T01:03:35.392Z,101131.41
2022-12-06T01:04:37.654Z,101139.56
2022-12-06T01:05:45.005Z,101128.66
2022-12-06T01:06:46.770Z,101138.34
2022-12-06T01:07:48.657Z,101133.97
2022-12-06T01:08:50.509Z,101135.78
2022-12-06T01:09:52.260Z,101134.09
2022-12-06T01:10:55.108Z,101132.38
2022-12-06T01:11:58.753Z,101132.28
2022-12-06T01:13:00.556Z,101130.59
2022-12-06T01:14:02.818Z,101127.91
2022-12-06T01:15:04.869Z,101114.13
2022-12-06T01:16:15.749Z,101127.91
2022-12-06T01:17:17.570Z,101130.44
2022-12-06T01:18:19.360Z,101119.06
2022-12-06T01:19:21.150Z,101108.28
2022-12-06T01:20:22.869Z,101116.53
2022-12-06T01:21:26.323Z,101121.88
2022-12-06T01:22:28.230Z,101119.06
2022-12-06T01:23:29.911Z,101113.88
2022-12-06T01:24:31.587Z,101097.88
2022-12-06T01:25:36.091Z,101111.47
2022-12-06T01:26:38.337Z,101107.81
2022-12-06T01:27:40.032Z,101108.53
2022-12-06T01:28:41.769Z,101105.00
2022-12-06T01:29:43.542Z,101102.34
2022-12-06T01:30:45.373Z,101097.00
2022-12-06T01:31:47.109Z,101095.56
2022-12-06T01:32:48.857Z,101089.88
2022-12-06T01:33:50.744Z,101092.66
2022-12-06T01:34:52.882Z,101097.97
2022-12-06T01:35:54.686Z,101100.53
2022-12-06T01:36:56.357Z,101096.19
2022-12-06T01:38:03.001Z,101095.31
2022-12-06T01:39:10.729Z,101096.91
2022-12-06T01:40:13.311Z,101094.25
2022-12-06T01:41:15.185Z,101084.78
2022-12-06T01:42:17.026Z,101082.84
2022-12-06T01:43:41.935Z,101080.75
2022-12-06T01:44:47.431Z,101077.25
2022-12-06T01:45:49.195Z,101072.19
2022-12-06T01:46:51.378Z,101071.22
2022-12-06T01:47:53.160Z,101078.34
2022-12-06T01:49:09.773Z,101072.19
2022-12-06T01:50:14.585Z,101074.59
2022-12-06T01:51:17.302Z,101074.97
2022-12-06T01:52:20.449Z,101076.53
2022-12-06T01:53:25.691Z,101070.59
2022-12-06T01:54:28.513Z,101074.00
2022-12-06T01:55:35.240Z,101074.00
2022-12-06T01:56:39.300Z,101069.63
2022-12-06T01:57:41.059Z,101067.81
2022-12-06T01:58:46.125Z,101066.13
2022-12-06T01:59:47.857Z,101078.50
2022-12-06T02:00:49.833Z,101068.81
2022-12-06T02:01:52.166Z,101067.31
2022-12-06T02:02:54.916Z,101068.81
2022-12-06T02:03:59.828Z,101074.13
2022-12-06T02:05:03.140Z,101064.56
2022-12-06T02:06:07.566Z,101065.16
2022-12-06T02:07:09.493Z,101067.06
2022-12-06T02:08:13.370Z,101062.00
2022-12-06T02:09:16.720Z,101068.81
2022-12-06T02:10:19.254Z,101059.94
2022-12-06T02:11:20.996Z,101057.28
2022-12-06T02:12:22.790Z,101036.59
2022-12-06T02:13:25.349Z,101048.56
2022-12-06T02:14:32.112Z,101053.03
2022-12-06T02:15:47.434Z,101058.97
2022-12-06T02:17:13.358Z,101052.41
2022-12-06T02:18:24.930Z,101040.41
2022-12-06T02:19:50.701Z,101053.13
2022-12-06T02:21:09.661Z,101053.13
2022-12-06T02:22:35.202Z,101043.31
2022-12-06T02:23:40.026Z,101043.91
2022-12-06T02:24:57.701Z,101042.47
2022-12-06T02:26:24.799Z,101036.03
2022-12-06T02:27:45.673Z,101043.06
2022-12-06T02:29:05.852Z,101035.78
2022-12-06T02:30:34.770Z,101041.13
2022-12-06T02:31:46.504Z,101034.34
2022-12-06T02:32:57.329Z,101043.31
2022-12-06T02:34:05.552Z,101041.63
2022-12-06T02:35:19.017Z,101040.78
2022-12-06T02:36:38.809Z,101036.16
2022-12-06T02:37:49.697Z,101038.09
2022-12-06T02:38:58.633Z,101010.38
2022-12-06T02:40:19.702Z,101035.44
2022-12-06T02:41:25.683Z,101024.91
2022-12-06T02:42:35.207Z,101028.56
2022-12-06T02:43:51.136Z,101027.59
2022-12-06T02:45:00.779Z,101022.25
2022-12-06T02:46:04.776Z,101021.53
2022-12-06T02:47:09.084Z,101014.16
2022-12-06T02:48:13.011Z,101021.75
2022-12-06T02:49:15.542Z,101024.41
2022-12-06T02:50:22.896Z,101023.59
2022-12-06T02:51:27.484Z,101016.41
2022-12-06T02:52:31.988Z,101019.94
2022-12-06T02:53:37.272Z,100997.69
2022-12-06T02:54:40.439Z,101013.75
2022-12-06T02:55:43.503Z,101013.75
2022-12-06T02:56:45.298Z,101012.94
2022-12-06T02:57:50.102Z,101006.72
2022-12-06T02:58:51.780Z,100997.44
2022-12-06T02:59:54.743Z,101003.97
2022-12-06T03:01:00.071Z,101007.97
2022-12-06T03:02:04.602Z,101009.28
2022-12-06T03:03:15.458Z,101008.19
2022-12-06T03:04:50.071Z,101005.13
2022-12-06T03:06:03.868Z,101006.72
2022-12-06T03:07:42.910Z,101004.78
2022-12-06T03:09:06.914Z,100992.88
2022-12-06T03:10:26.944Z,100992.88
2022-12-06T03:11:55.754Z,100994.09
2022-12-06T03:13:16.553Z,100984.00
2022-12-06T03:14:23.349Z,100996.78
2022-12-06T03:15:53.239Z,100998.47
2022-12-06T03:17:07.481Z,100993.38
2022-12-06T03:19:03.118Z,100998.47
2022-12-06T03:20:19.421Z,101003.53
2022-12-06T03:21:43.658Z,101005.47
2022-12-06T03:22:51.456Z,100995.91
2022-12-06T03:23:54.402Z,100990.25
2022-12-06T03:24:58.146Z,100991.09
2022-12-06T03:26:02.211Z,100999.22
2022-12-06T03:27:19.269Z,100996.59
2022-12-06T03:28:22.959Z,101007.94
2022-12-06T03:29:28.206Z,101005.75
2022-12-06T03:30:33.353Z,101005.75
2022-12-06T03:31:38.956Z,101010.00
2022-12-06T03:32:45.317Z,101004.06
2022-12-06T03:33:52.886Z,101002.88
2022-12-06T03:34:58.973Z,101006.38
2022-12-06T03:36:01.548Z,101007.22
2022-12-06T03:37:06.895Z,100984.84
2022-12-06T03:38:12.874Z,100994.88
2022-12-06T03:39:20.027Z,100991.22
2022-12-06T03:40:24.505Z,101000.94
2022-12-06T03:41:31.441Z,101000.94
2022-12-06T03:42:33.744Z,100991.34
2022-12-06T03:43:35.592Z,101000.94
2022-12-06T03:44:37.695Z,101000.06
2022-12-06T03:45:45.644Z,100996.69
2022-12-06T03:46:56.901Z,100999.94
2022-12-06T03:48:13.396Z,100994.38
2022-12-06T03:49:20.729Z,100994.38
2022-12-06T03:50:30.230Z,100984.78
2022-12-06T03:51:34.700Z,100998.81
2022-12-06T03:52:36.637Z,100994.47
2022-12-06T03:53:50.839Z,100993.66
2022-12-06T03:54:52.648Z,100975.72
2022-12-06T03:55:54.428Z,100987.44
2022-12-06T03:56:56.154Z,100990.25
2022-12-06T03:57:58.148Z,100985.75
2022-12-06T03:59:00.026Z,100982.03
2022-12-06T04:00:01.931Z,100993.91
2022-12-06T04:01:14.146Z,100985.75
2022-12-06T04:02:16.019Z,100997.28
2022-12-06T04:03:17.927Z,100991.22
2022-12-06T04:04:19.681Z,100998.13
2022-12-06T04:05:21.538Z,100985.75
2022-12-06T04:06:23.342Z,100985.56
2022-12-06T04:07:25.356Z,100989.41
2022-12-06T04:08:27.098Z,100992.94
2022-12-06T04:09:47.347Z,100985.75
2022-12-06T04:10:49.110Z,100977.38
2022-12-06T04:11:50.845Z,100986.38
2022-12-06T04:13:01.609Z,100973.53
2022-12-06T04:14:03.288Z,100977.66
2022-12-06T04:15:06.307Z,100974.00
2022-12-06T04:16:28.769Z,100974.84
2022-12-06T04:17:48.963Z,100968.41
2022-12-06T04:18:50.705Z,100955.81
2022-12-06T04:19:52.418Z,100962.09
2022-12-06T04:21:23.366Z,100973.75
2022-12-06T04:22:43.678Z,100965.22
2022-12-06T04:23:50.684Z,100964.25
2022-12-06T04:24:52.431Z,100956.63
2022-12-06T04:25:54.554Z,100972.78
2022-12-06T04:27:19.296Z,100971.91
2022-12-06T04:28:39.583Z,100962.38
2022-12-06T04:30:00.055Z,100970.41
2022-12-06T04:31:22.494Z,100948.31
2022-12-06T04:32:42.864Z,100970.31
2022-12-06T04:34:03.133Z,100964.25
2022-12-06T04:35:23.609Z,100962.31
2022-12-06T04:36:44.000Z,100937.41
2022-12-06T04:38:04.264Z,100967.63
2022-12-06T04:39:06.166Z,100967.63
2022-12-06T04:40:08.363Z,100954.81
2022-12-06T04:41:10.915Z,100963.91
2022-12-06T04:42:31.701Z,100965.84
2022-12-06T04:43:42.158Z,100965.50
2022-12-06T04:44:44.024Z,100961.13
2022-12-06T04:45:45.723Z,100957.88
2022-12-06T04:46:47.546Z,100958.72
2022-12-06T04:47:49.356Z,100965.03
2022-12-06T04:48:51.105Z,100950.53
2022-12-06T04:49:53.233Z,100958.97
2022-12-06T04:50:54.907Z,100952.69
2022-12-06T04:51:56.759Z,100938.03
2022-12-06T04:52:58.483Z,100953.66
2022-12-06T04:54:00.292Z,100955.47
2022-12-06T04:55:02.085Z,100959.81
2022-12-06T04:56:03.878Z,100964.31
2022-12-06T04:57:11.288Z,100959.81
2022-12-06T04:58:13.188Z,100940.25
2022-12-06T04:59:14.950Z,100949.88
2022-12-06T05:00:16.939Z,100952.69
2022-12-06T05:01:18.889Z,100950.00
2022-12-06T05:02:21.216Z,100941.56
2022-12-06T05:03:23.098Z,100937.91
2022-12-06T05:04:25.122Z,100953.41
2022-12-06T05:05:26.831Z,100946.03
2022-12-06T05:06:28.782Z,100942.28
2022-12-06T05:07:30.597Z,100963.19
2022-12-06T05:08:32.397Z,100956.06
2022-12-06T05:09:34.190Z,100937.06
2022-12-06T05:10:36.341Z,100949.28
2022-12-06T05:11:38.114Z,100952.41
2022-12-06T05:12:39.793Z,100949.28
2022-12-06T05:13:41.538Z,100955.09
2022-12-06T05:14:43.207Z,100956.88
2022-12-06T05:15:59.993Z,100967.44
2022-12-06T05:17:01.797Z,100957.34
2022-12-06T05:18:03.647Z,100957.50
2022-12-06T05:19:05.376Z,100955.81
2022-12-06T05:20:07.645Z,100945.66
2022-12-06T05:21:18.361Z,100946.81
2022-12-06T05:22:20.023Z,100944.88
2022-12-06T05:23:21.746Z,100941.50
2022-12-06T05:24:23.612Z,100935.28
2022-12-06T05:25:25.861Z,100933.56
2022-12-06T05:26:29.011Z,100934.00
2022-12-06T05:27:35.843Z,100945.13
2022-12-06T05:28:37.893Z,100942.47
2022-12-06T05:29:39.658Z,100939.81
2022-12-06T05:30:41.401Z,100939.81
2022-12-06T05:31:43.228Z,100937.97
2022-12-06T05:32:44.956Z,100938.13
2022-12-06T05:33:48.080Z,100939.81
2022-12-06T05:34:49.756Z,100944.16
2022-12-06T05:35:52.146Z,100941.50
2022-12-06T05:36:53.880Z,100946.81
2022-12-06T05:37:55.762Z,100944.16
2022-12-06T05:38:57.799Z,100952.16
2022-12-06T05:39:59.915Z,100944.16
2022-12-06T05:41:02.586Z,100941.03
2022-12-06T05:42:04.366Z,100952.16
2022-12-06T05:43:06.331Z,100942.31
2022-12-06T05:44:11.068Z,100942.72
2022-12-06T05:45:12.816Z,100948.53
2022-12-06T05:46:14.875Z,100942.31
2022-12-06T05:47:16.714Z,100936.41
2022-12-06T05:48:18.704Z,100943.69
2022-12-06T05:49:20.615Z,100933.03
2022-12-06T05:50:22.312Z,100943.19
2022-12-06T05:51:24.014Z,100936.16
2022-12-06T05:52:25.810Z,100925.31
2022-12-06T05:53:27.667Z,100937.00
2022-12-06T05:54:29.392Z,100942.31
2022-12-06T05:55:31.340Z,100940.53
2022-12-06T05:56:33.818Z,100941.50
2022-12-06T05:57:35.536Z,100944.00
2022-12-06T05:58:37.574Z,100937.84
2022-12-06T05:59:39.267Z,100931.09
2022-12-06T06:00:40.981Z,100948.53
2022-12-06T06:01:42.890Z,100945.84
2022-12-06T06:02:44.757Z,100933.88
2022-12-06T06:03:47.880Z,100944.00
2022-12-06T06:04:49.814Z,100934.72
2022-12-06T06:05:56.116Z,100941.59
2022-12-06T06:06:57.848Z,100945.44
2022-12-06T06:07:59.676Z,100940.97
2022-12-06T06:09:01.500Z,100902.31
2022-12-06T06:10:04.486Z,100939.03
2022-12-06T06:11:06.405Z,100942.41
2022-12-06T06:12:12.239Z,100938.50
2022-12-06T06:13:14.131Z,100936.81
2022-12-06T06:14:15.959Z,100941.63
2022-12-06T06:15:17.980Z,100926.72
2022-12-06T06:16:19.673Z,100929.72
2022-12-06T06:17:21.557Z,100932.97
2022-12-06T06:18:23.397Z,100939.63
2022-12-06T06:19:25.088Z,100935.00
2022-12-06T06:20:26.822Z,100929.66
2022-12-06T06:21:28.619Z,100929.97
2022-12-06T06:22:30.295Z,100937.56
2022-12-06T06:23:32.428Z,100931.03
2022-12-06T06:24:39.132Z,100928.09
2022-12-06T06:25:40.944Z,100925.03
2022-12-06T06:26:42.714Z,100912.09
2022-12-06T06:27:44.523Z,100918.03
2022-12-06T06:28:46.708Z,100919.44
2022-12-06T06:29:48.370Z,100921.88
2022-12-06T06:30:51.107Z,100925.09
2022-12-06T06:31:52.872Z,100924.00
2022-12-06T06:32:54.697Z,100928.81
2022-12-06T06:33:56.489Z,100909.53
2022-12-06T06:34:58.150Z,100923.75
2022-12-06T06:36:00.246Z,100919.13
2022-12-06T06:37:01.953Z,100906.34
2022-12-06T06:38:04.322Z,100913.97
2022-12-06T06:39:06.081Z,100910.88
2022-12-06T06:40:08.439Z,100904.44
2022-12-06T06:41:12.353Z,100904.97
2022-12-06T06:42:14.040Z,100905.56
2022-12-06T06:43:18.810Z,100908.94
2022-12-06T06:44:20.863Z,100894.47
2022-12-06T06:45:28.443Z,100910.94
2022-12-06T06:46:30.976Z,100907.00
2022-12-06T06:47:32.972Z,100906.72
2022-12-06T06:48:39.413Z,100907.44
2022-12-06T06:49:41.372Z,100912.38
2022-12-06T06:50:43.124Z,100907.84
2022-12-06T06:51:45.761Z,100906.75
2022-12-06T06:52:47.897Z,100903.09
2022-12-06T06:53:49.614Z,100913.50
2022-12-06T06:54:51.438Z,100908.00
2022-12-06T06:55:54.085Z,100915.94
2022-12-06T06:56:56.394Z,100916.75
2022-12-06T06:57:58.128Z,100925.47
2022-12-06T06:58:59.848Z,100919.03
2022-12-06T07:00:02.221Z,100922.53
2022-12-06T07:01:06.154Z,100905.06
2022-12-06T07:02:12.122Z,100925.78
2022-12-06T07:03:20.123Z,100918.59
2022-12-06T07:04:22.052Z,100924.50
2022-12-06T07:05:24.226Z,100914.69
2022-12-06T07:06:26.079Z,100914.69
2022-12-06T07:07:27.889Z,100914.41
2022-12-06T07:08:31.448Z,100915.38
2022-12-06T07:09:33.657Z,100907.19
2022-12-06T07:10:35.399Z,100910.72
2022-12-06T07:11:37.798Z,100898.63
2022-12-06T07:12:39.497Z,100911.44
2022-12-06T07:13:46.763Z,100914.13
2022-12-06T07:14:51.311Z,100899.47
2022-12-06T07:15:53.486Z,100911.97
2022-12-06T07:16:55.271Z,100906.50
2022-12-06T07:17:57.077Z,100913.84
2022-12-06T07:18:58.930Z,100899.47
2022-12-06T07:20:01.198Z,100896.94
2022-12-06T07:21:06.361Z,100894.28
2022-12-06T07:22:08.230Z,100904.53
2022-12-06T07:23:10.013Z,100906.50
2022-12-06T07:24:11.694Z,100894.84
2022-12-06T07:25:14.016Z,100913.53
2022-12-06T07:26:24.044Z,100904.66
2022-12-06T07:27:25.848Z,100907.91
2022-12-06T07:28:27.640Z,100904.53
2022-12-06T07:29:29.325Z,100915.22
2022-12-06T07:30:31.612Z,100905.53
2022-12-06T07:31:33.980Z,100909.88
2022-12-06T07:32:37.431Z,100888.38
2022-12-06T07:33:39.515Z,100906.22
2022-12-06T07:34:41.253Z,100905.38
2022-12-06T07:36:10.747Z,100903.56
2022-12-06T07:37:07.549Z,100898.63
2022-12-06T07:38:09.305Z,100903.16
2022-12-06T07:39:14.735Z,100902.28
2022-12-06T07:40:21.012Z,100900.59
2022-12-06T07:41:51.051Z,100907.34
2022-12-06T07:43:28.484Z,100905.09
2022-12-06T07:44:48.705Z,100894.38
2022-12-06T07:45:50.437Z,100898.91
2022-12-06T07:46:52.173Z,100889.47
2022-12-06T07:47:54.011Z,100898.63
2022-12-06T07:48:55.847Z,100886.22
2022-12-06T07:49:57.740Z,100890.47
2022-12-06T07:51:04.898Z,100891.88
2022-12-06T07:52:06.817Z,100869.94
2022-12-06T07:53:08.581Z,100901.56
2022-12-06T07:54:10.269Z,100903.41
2022-12-06T07:55:12.511Z,100902.69
2022-12-06T07:56:14.405Z,100903.56
2022-12-06T07:57:16.168Z,100907.06
2022-12-06T07:58:17.843Z,100913.38
2022-12-06T07:59:19.789Z,100907.22
2022-12-06T08:00:21.669Z,100916.06
2022-12-06T08:01:23.563Z,100896.38
2022-12-06T08:02:27.051Z,100918.72
2022-12-06T08:03:28.804Z,100902.84
2022-12-06T08:04:30.779Z,100901.69
2022-12-06T08:05:32.571Z,100901.88
2022-12-06T08:06:35.059Z,100900.31
2022-12-06T08:07:36.839Z,100897.63
2022-12-06T08:08:38.713Z,100894.66
2022-12-06T08:09:40.877Z,100900.88
2022-12-06T08:10:42.668Z,100910.59
2022-12-06T08:11:44.530Z,100906.22
2022-12-06T08:12:46.236Z,100900.03
2022-12-06T08:13:47.926Z,100883.72
2022-12-06T08:14:49.873Z,100891.59
2022-12-06T08:15:51.690Z,100904.53
2022-12-06T08:16:53.416Z,100885.41
2022-12-06T08:17:55.137Z,100905.38
2022-12-06T08:18:57.327Z,100898.34
2022-12-06T08:19:59.457Z,100911.41
2022-12-06T08:21:01.503Z,100906.22
2022-12-06T08:22:03.619Z,100906.06
2022-12-06T08:23:05.328Z,100906.94
2022-12-06T08:24:07.522Z,100906.22
2022-12-06T08:25:09.791Z,100909.88
2022-12-06T08:26:15.697Z,100904.53
2022-12-06T08:27:17.404Z,100901.69
2022-12-06T08:28:19.061Z,100907.75
2022-12-06T08:29:21.421Z,100906.06
2022-12-06T08:30:23.137Z,100909.59
2022-12-06T08:31:25.052Z,100908.19
2022-12-06T08:32:26.827Z,100898.91
2022-12-06T08:33:28.701Z,100909.59
2022-12-06T08:34:30.582Z,100904.38
2022-12-06T08:35:32.484Z,100894.13
2022-12-06T08:36:34.237Z,100912.28
2022-12-06T08:37:35.937Z,100897.22
2022-12-06T08:38:38.176Z,100898.91
2022-12-06T08:39:39.985Z,100892.44
2022-12-06T08:40:41.793Z,100900.88
2022-12-06T08:41:55.539Z,100902.56
2022-12-06T08:42:57.480Z,100899.59
2022-12-06T08:44:01.748Z,100893.56
2022-12-06T08:45:04.078Z,100901.56
2022-12-06T08:46:06.002Z,100904.25
2022-12-06T08:47:07.933Z,100900.88
2022-12-06T08:48:09.675Z,100904.53
2022-12-06T08:49:12.564Z,100897.78
2022-12-06T08:50:14.279Z,100901.88
2022-12-06T08:51:16.154Z,100904.53
2022-12-06T08:52:17.945Z,100908.19
2022-12-06T08:53:19.815Z,100902.84
2022-12-06T08:54:24.035Z,100901.16
2022-12-06T08:55:25.866Z,100901.88
2022-12-06T08:56:29.583Z,100910.88
2022-12-06T08:57:32.844Z,100895.81
2022-12-06T08:58:34.646Z,100891.75
2022-12-06T08:59:37.481Z,100905.53
2022-12-06T09:00:39.189Z,100907.22
2022-12-06T09:01:41.353Z,100908.19
2022-12-06T09:02:43.072Z,100908.19
2022-12-06T09:03:44.779Z,100915.22
2022-12-06T09:04:46.507Z,100910.88
2022-12-06T09:05:48.297Z,100916.22
2022-12-06T09:06:50.221Z,100921.56
2022-12-06T09:07:51.979Z,100912.69
2022-12-06T09:08:53.725Z,100915.22
2022-12-06T09:09:55.753Z,100918.91
2022-12-06T09:10:57.449Z,100918.19
2022-12-06T09:11:59.122Z,100899.19
2022-12-06T09:13:00.915Z,100912.69
2022-12-06T09:14:02.859Z,100921.56
2022-12-06T09:15:05.087Z,100911.84
2022-12-06T09:16:13.842Z,100908.19
2022-12-06T09:17:15.657Z,100909.31
2022-12-06T09:18:17.404Z,100906.22
2022-12-06T09:19:20.327Z,100910.72
2022-12-06T09:20:22.123Z,100904.53
2022-12-06T09:21:26.591Z,100906.34
2022-12-06T09:22:28.274Z,100906.22
2022-12-06T09:23:30.042Z,100907.22
2022-12-06T09:24:31.797Z,100895.25
2022-12-06T09:25:33.709Z,100911.69
2022-12-06T09:26:35.494Z,100904.25
2022-12-06T09:27:37.385Z,100925.06
2022-12-06T09:28:41.244Z,100913.53
2022-12-06T09:29:42.976Z,100923.25
2022-12-06T09:30:44.701Z,100914.25
2022-12-06T09:31:46.808Z,100909.88
2022-12-06T09:32:48.550Z,100902.56
2022-12-06T09:33:50.549Z,100909.88
2022-12-06T09:34:52.638Z,100906.34
2022-12-06T09:35:54.492Z,100910.72
2022-12-06T09:37:02.536Z,100885.69
2022-12-06T09:38:05.302Z,100903.56
2022-12-06T09:39:14.017Z,100901.88
2022-12-06T09:40:36.228Z,100898.03
2022-12-06T09:41:58.404Z,100901.72
2022-12-06T09:43:02.979Z,100899.19
2022-12-06T09:44:14.704Z,100913.69
2022-12-06T09:45:24.912Z,100898.63
2022-12-06T09:46:44.091Z,100904.81
2022-12-06T09:47:57.497Z,100898.34
2022-12-06T09:49:43.861Z,100899.47
2022-12-06T09:50:57.660Z,100898.75
2022-12-06T09:52:28.656Z,100904.81
2022-12-06T09:53:50.069Z,100898.06
2022-12-06T09:55:25.484Z,100896.38
2022-12-06T09:56:46.847Z,100897.75
2022-12-06T09:58:13.917Z,100892.69
2022-12-06T09:59:41.190Z,100894.38
2022-12-06T10:00:58.123Z,100899.91
2022-12-06T10:02:38.731Z,100901.72
2022-12-06T10:03:59.113Z,100898.75
2022-12-06T10:05:42.425Z,100895.25
2022-12-06T10:07:04.269Z,100891.72
2022-12-06T10:08:27.828Z,100883.97
2022-12-06T10:09:59.417Z,100874.97
2022-12-06T10:11:11.045Z,100881.19
2022-12-06T10:12:37.142Z,100881.19
2022-12-06T10:14:00.263Z,100879.63
2022-12-06T10:15:17.971Z,100873.44
2022-12-06T10:16:46.375Z,100886.53
2022-12-06T10:17:59.146Z,100884.97
2022-12-06T10:19:36.828Z,100886.53
2022-12-06T10:20:53.960Z,100889.31
2022-12-06T10:22:16.697Z,100897.34
2022-12-06T10:23:45.530Z,100885.66
2022-12-06T10:25:22.457Z,100891.00
2022-12-06T10:26:48.172Z,100884.56
2022-12-06T10:28:10.895Z,100867.66
2022-12-06T10:29:25.963Z,100884.13
2022-12-06T10:30:34.354Z,100867.94
2022-12-06T10:31:51.988Z,100881.75
2022-12-06T10:33:07.434Z,100863.72
2022-12-06T10:34:23.010Z,100875.53
2022-12-06T10:35:54.479Z,100878.91
2022-12-06T10:37:17.561Z,100871.31
2022-12-06T10:38:30.662Z,100872.44
2022-12-06T10:39:52.222Z,100864.56
2022-12-06T10:41:05.369Z,100871.59
2022-12-06T10:42:16.174Z,100866.41
2022-12-06T10:43:32.587Z,100857.25
2022-12-06T10:44:53.413Z,100869.78
2022-12-06T10:46:32.434Z,100866.94
2022-12-06T10:47:43.866Z,100849.66
2022-12-06T10:49:02.174Z,100873.28
2022-12-06T10:50:14.408Z,100870.78
2022-12-06T10:51:24.261Z,100865.53
2022-12-06T10:52:48.903Z,100873.16
2022-12-06T10:53:59.460Z,100860.19
2022-12-06T10:55:10.530Z,100867.09
2022-12-06T10:56:21.105Z,100861.88
2022-12-06T10:57:36.666Z,100864.56
2022-12-06T10:58:51.585Z,100861.88
2022-12-06T11:00:26.472Z,100863.97
2022-12-06T11:01:34.232Z,100853.88
2022-12-06T11:03:05.276Z,100860.31
2022-12-06T11:04:20.100Z,100853.28
2022-12-06T11:05:47.882Z,100849.91
2022-12-06T11:07:04.450Z,100845.13
2022-12-06T11:08:15.549Z,100851.59
2022-12-06T11:09:26.689Z,100848.22
2022-12-06T11:10:31.835Z,100846.53
2022-12-06T11:11:36.764Z,100854.84
2022-12-06T11:12:39.328Z,100849.50
2022-12-06T11:13:49.710Z,100849.66
2022-12-06T11:15:02.080Z,100851.19
2022-12-06T11:16:24.939Z,100848.50
2022-12-06T11:17:29.682Z,100848.22
2022-12-06T11:18:32.548Z,100852.88
2022-12-06T11:19:39.909Z,100851.34
2022-12-06T11:20:51.612Z,100838.41
2022-12-06T11:22:00.810Z,100841.47
2022-12-06T11:23:17.647Z,100839.50
2022-12-06T11:24:31.924Z,100848.22
2022-12-06T11:26:00.421Z,100842.59
2022-12-06T11:27:09.985Z,100840.91
2022-12-06T11:28:21.972Z,100835.56
2022-12-06T11:29:23.864Z,100833.88
2022-12-06T11:30:26.016Z,100851.06
2022-12-06T11:31:30.844Z,100797.34
2022-12-06T11:32:32.632Z,100827.13
2022-12-06T11:33:34.887Z,100833.88
2022-12-06T11:34:46.189Z,100833.63
2022-12-06T11:35:48.379Z,100820.38
2022-12-06T11:36:58.138Z,100824.59
2022-12-06T11:38:05.489Z,100820.38
2022-12-06T11:39:07.600Z,100832.34
2022-12-06T11:40:31.648Z,100832.88
2022-12-06T11:41:36.674Z,100818.41
2022-12-06T11:42:38.627Z,100824.84
2022-12-06T11:43:40.798Z,100830.38
2022-12-06T11:44:51.859Z,100823.47
2022-12-06T11:45:56.113Z,100824.16
2022-12-06T11:47:01.136Z,100820.66
2022-12-06T11:48:14.493Z,100828.53
2022-12-06T11:49:21.754Z,100829.38
2022-12-06T11:50:28.456Z,100830.22
2022-12-06T11:51:30.229Z,100825.72
2022-12-06T11:52:39.197Z,100824.03
2022-12-06T11:54:06.116Z,100825.03
2022-12-06T11:55:17.422Z,100838.63
2022-12-06T11:56:26.871Z,100829.91
2022-12-06T11:57:35.693Z,100841.47
2022-12-06T11:58:44.028Z,100842.31
2022-12-06T12:00:11.709Z,100830.47
2022-12-06T12:01:16.360Z,100834.69
2022-12-06T12:02:31.863Z,100842.00
2022-12-06T12:03:36.547Z,100836.81
2022-12-06T12:04:41.290Z,100828.53
2022-12-06T12:05:43.088Z,100829.09
2022-12-06T12:06:47.093Z,100827.53
2022-12-06T12:07:55.478Z,100827.53
2022-12-06T12:09:03.296Z,100818.13
2022-12-06T12:10:25.324Z,100826.25
2022-12-06T12:11:33.598Z,100830.78
2022-12-06T12:13:05.558Z,100826.25
2022-12-06T12:14:24.173Z,100829.34
2022-12-06T12:15:27.740Z,100830.47
2022-12-06T12:16:50.735Z,100836.53
2022-12-06T12:17:55.155Z,100834.16
2022-12-06T12:19:06.977Z,100840.63
2022-12-06T12:20:24.461Z,100834.56
2022-12-06T12:21:39.289Z,100829.78
2022-12-06T12:22:45.377Z,100836.25
2022-12-06T12:23:47.773Z,100836.41
2022-12-06T12:25:17.738Z,100832.06
2022-12-06T12:26:18.878Z,100832.75
2022-12-06T12:27:42.361Z,100837.25
2022-12-06T12:28:46.678Z,100837.94
2022-12-06T12:30:09.598Z,100837.25
2022-12-06T12:31:20.177Z,100826.25
2022-12-06T12:32:22.030Z,100833.56
2022-12-06T12:33:25.875Z,100830.22
2022-12-06T12:34:31.353Z,100833.03
2022-12-06T12:35:36.525Z,100827.00
2022-12-06T12:36:38.584Z,100833.16
2022-12-06T12:37:40.942Z,100835.84
2022-12-06T12:38:48.614Z,100831.91
2022-12-06T12:39:54.122Z,100833.16
2022-12-06T12:41:01.981Z,100834.84
2022-12-06T12:42:04.541Z,100832.19
2022-12-06T12:43:12.298Z,100830.50
2022-12-06T12:45:41.084Z,100832.75